Time;durP1;ratioP1;P1;durP2;ratioP2;P2;SDS_P1;SDS_P2;PMS_P1;PMS_P2;Temp;Humidity;BMP_temperature;BMP_pressure;BME280_temperature;BME280_humidity;BME280_pressure;Samples;Min_cycle;Max_cycle;Signal;HPM_P1;HPM_P2
2022/06/24 00:00:58;;;;;;;1.05;0.60;;;;;;;;;;21087851;28;20052;-59
2022/06/24 00:11:11;;;;;;;1.30;0.65;;;;;;;;;;21087006;28;20056;-61
2022/06/24 00:21:14;;;;;;;2.40;0.90;;;;;;;;;;21084939;28;20044;-61
2022/06/24 00:31:16;;;;;;;1.73;0.90;;;;;;;;;;21083938;28;20093;-59
2022/06/24 00:41:22;;;;;;;2.10;0.80;;;;;;;;;;21083373;28;20511;-62
2022/06/24 00:51:32;;;;;;;1.35;0.80;;;;;;;;;;21083278;28;20075;-66
2022/06/24 01:01:36;;;;;;;0.82;0.70;;;;;;;;;;21081683;28;20072;-65
2022/06/24 01:11:40;;;;;;;1.23;0.85;;;;;;;;;;21082050;28;20134;-67
2022/06/24 01:21:45;;;;;;;1.50;0.73;;;;;;;;;;21081435;28;20488;-63
2022/06/24 01:31:52;;;;;;;1.20;0.63;;;;;;;;;;21080068;28;20079;-61
2022/06/24 01:41:54;;;;;;;2.85;0.80;;;;;;;;;;21079861;28;20048;-60
2022/06/24 01:51:58;;;;;;;4.10;0.90;;;;;;;;;;21078195;28;20091;-59
2022/06/24 02:02:00;;;;;;;1.92;0.90;;;;;;;;;;21078389;28;20051;-59
2022/06/24 02:22:35;;;;;;;2.20;0.85;;;;;;;;;;20985266;28;20060;-60
2022/06/24 02:32:37;;;;;;;1.02;0.73;;;;;;;;;;20985052;28;20079;-60
2022/06/24 02:42:39;;;;;;;3.65;2.40;;;;;;;;;;20984927;28;20080;-60
2022/06/24 02:52:41;;;;;;;43.80;31.58;;;;;;;;;;21016150;28;20472;-62
2022/06/24 03:02:44;;;;;;;5.60;3.23;;;;;;;;;;21087444;28;20044;-61
2022/06/24 03:12:47;;;;;;;4.13;1.73;;;;;;;;;;21092143;28;20047;-59
2022/06/24 03:22:50;;;;;;;2.47;1.20;;;;;;;;;;21091017;28;20047;-60
2022/06/24 03:32:52;;;;;;;3.72;1.20;;;;;;;;;;21088876;28;20488;-60
2022/06/24 03:42:54;;;;;;;4.22;1.52;;;;;;;;;;21088895;28;20048;-60
2022/06/24 03:52:56;;;;;;;3.90;1.83;;;;;;;;;;21087793;28;20075;-61
2022/06/24 04:02:58;;;;;;;1.77;1.10;;;;;;;;;;21086588;28;20488;-65
2022/06/24 04:13:01;;;;;;;3.83;1.20;;;;;;;;;;21086023;28;20083;-68
2022/06/24 04:23:03;;;;;;;2.85;1.10;;;;;;;;;;21084653;28;20044;-61
2022/06/24 04:33:04;;;;;;;1.63;1.05;;;;;;;;;;21083982;28;20055;-60
2022/06/24 04:43:08;;;;;;;2.47;1.23;;;;;;;;;;21083445;28;20123;-62
2022/06/24 04:53:10;;;;;;;4.40;1.57;;;;;;;;;;21082556;28;20044;-65
2022/06/24 05:03:12;;;;;;;3.47;1.67;;;;;;;;;;21081541;28;20564;-60
2022/06/24 05:13:13;;;;;;;3.88;1.35;;;;;;;;;;21081858;28;20476;-65
2022/06/24 05:23:15;;;;;;;1.58;1.20;;;;;;;;;;21079334;28;20105;-66
2022/06/24 05:33:17;;;;;;;3.33;1.77;;;;;;;;;;21081136;28;20052;-65
2022/06/24 05:43:19;;;;;;;5.22;2.00;;;;;;;;;;21079958;28;20071;-68
2022/06/24 06:03:41;;;;;;;3.63;1.75;;;;;;;;;;21078793;28;20072;-66
2022/06/24 06:13:44;;;;;;;5.05;1.60;;;;;;;;;;21076733;28;20051;-67
2022/06/24 06:23:46;;;;;;;4.93;1.65;;;;;;;;;;21078335;28;20488;-65
2022/06/24 06:33:49;;;;;;;2.33;1.52;;;;;;;;;;21082513;28;20047;-62
2022/06/24 06:43:50;;;;;;;2.92;1.88;;;;;;;;;;21094218;28;20078;-68
2022/06/24 06:53:52;;;;;;;4.20;2.53;;;;;;;;;;21092953;28;20189;-61
2022/06/24 07:03:54;;;;;;;2.33;1.65;;;;;;;;;;21090965;28;20044;-64
2022/06/24 07:13:55;;;;;;;3.65;1.33;;;;;;;;;;21087749;28;20506;-64
2022/06/24 07:23:57;;;;;;;4.00;1.75;;;;;;;;;;21087841;28;20424;-61
2022/06/24 07:33:59;;;;;;;2.60;1.60;;;;;;;;;;21069113;28;20131;-56
2022/06/24 07:44:01;;;;;;;3.33;1.57;;;;;;;;;;21087066;28;20062;-55
2022/06/24 07:54:05;;;;;;;2.00;1.20;;;;;;;;;;21078424;28;20463;-55
2022/06/24 08:04:07;;;;;;;3.53;1.60;;;;;;;;;;21085110;28;20048;-55
2022/06/24 08:14:09;;;;;;;4.93;1.27;;;;;;;;;;21087134;28;20052;-56
2022/06/24 08:24:13;;;;;;;3.30;1.20;;;;;;;;;;21085160;28;20044;-61
2022/06/24 08:34:17;;;;;;;2.75;1.20;;;;;;;;;;21084805;28;20403;-58
2022/06/24 08:44:19;;;;;;;4.10;1.40;;;;;;;;;;21084462;28;20079;-58
2022/06/24 08:54:21;;;;;;;;;;;;;;;;;;21069313;28;20131;-56
2022/06/24 09:04:23;;;;;;;4.82;1.00;;;;;;;;;;21062427;28;20007;-57
2022/06/24 09:14:43;;;;;;;4.57;2.90;;;;;;;;;;20997448;28;20055;-55
2022/06/24 09:24:51;;;;;;;5.18;1.50;;;;;;;;;;20996627;28;20057;-55
2022/06/24 09:35:07;;;;;;;4.25;1.25;;;;;;;;;;20995414;28;20103;-68
2022/06/24 09:45:09;;;;;;;3.45;0.93;;;;;;;;;;20995631;28;20052;-64
2022/06/24 09:55:11;;;;;;;2.65;1.70;;;;;;;;;;20995047;28;20056;-63
2022/06/24 10:05:15;;;;;;;1.48;0.90;;;;;;;;;;20993463;28;20052;-59
2022/06/24 10:15:18;;;;;;;6.75;1.52;;;;;;;;;;21011052;28;20052;-66
2022/06/24 10:25:39;;;;;;;2.17;1.10;;;;;;;;;;21008786;28;20080;-62
2022/06/24 10:35:55;;;;;;;2.15;1.00;;;;;;;;;;21007745;28;20049;-61
2022/06/24 10:46:29;;;;;;;2.20;1.02;;;;;;;;;;21008995;28;20057;-60
2022/06/24 10:56:43;;;;;;;2.17;1.13;;;;;;;;;;20915851;28;20049;-60
2022/06/24 11:07:08;;;;;;;3.22;1.20;;;;;;;;;;20915233;28;20467;-70
2022/06/24 11:17:10;;;;;;;5.25;1.17;;;;;;;;;;20750102;28;20050;-62
2022/06/24 11:27:12;;;;;;;;;;;;;;;;;;20717386;28;20054;-67
2022/06/24 11:37:15;;;;;;;6.17;1.83;;;;;;;;;;20668189;28;19921;-66
2022/06/24 11:47:29;;;;;;;3.00;1.25;;;;;;;;;;20733172;28;20049;-67
2022/06/24 11:57:31;;;;;;;3.60;1.70;;;;;;;;;;21004812;28;20127;-65
2022/06/24 12:07:33;;;;;;;4.05;2.13;;;;;;;;;;21001134;28;20063;-64
2022/06/24 12:17:35;;;;;;;2.72;1.20;;;;;;;;;;21002266;28;20500;-65
2022/06/24 12:27:37;;;;;;;;;;;;;;;;;;21001239;28;20078;-68
2022/06/24 12:37:51;;;;;;;2.20;1.60;;;;;;;;;;20999606;28;20424;-66
2022/06/24 12:58:13;;;;;;;7.00;1.17;;;;;;;;;;20998861;28;20044;-66
2022/06/24 13:08:16;;;;;;;3.92;1.88;;;;;;;;;;20998173;28;20405;-61
2022/06/24 13:18:18;;;;;;;2.92;1.30;;;;;;;;;;20997855;28;20131;-64
2022/06/24 13:28:20;;;;;;;2.67;1.45;;;;;;;;;;20996343;28;20110;-67
2022/06/24 13:38:23;;;;;;;;;;;;;;;;;;20996563;28;20052;-62
2022/06/24 13:48:25;;;;;;;3.05;0.98;;;;;;;;;;20995536;28;19920;-68
2022/06/24 13:58:27;;;;;;;2.85;1.30;;;;;;;;;;20997787;28;20048;-62
2022/06/24 14:08:29;;;;;;;3.03;1.30;;;;;;;;;;20994379;28;20075;-60
2022/06/24 14:18:31;;;;;;;2.83;1.55;;;;;;;;;;20994076;28;20044;-61
2022/06/24 14:28:33;;;;;;;3.15;1.38;;;;;;;;;;20994717;28;20143;-60
2022/06/24 14:49:16;;;;;;;3.42;1.40;;;;;;;;;;20727141;28;20220;-66
2022/06/24 14:59:17;;;;;;;1.75;1.10;;;;;;;;;;20748799;28;20502;-61
2022/06/24 15:09:19;;;;;;;2.50;1.35;;;;;;;;;;20752183;28;20088;-66
2022/06/24 15:19:21;;;;;;;2.35;1.73;;;;;;;;;;20960054;28;20140;-66
2022/06/24 15:29:22;;;;;;;2.13;1.15;;;;;;;;;;21005841;28;20117;-66
2022/06/24 15:39:24;;;;;;;3.33;2.00;;;;;;;;;;21005885;28;20346;-60
2022/06/24 15:49:26;;;;;;;2.92;1.27;;;;;;;;;;21003704;28;20044;-66
2022/06/24 15:59:28;;;;;;;1.77;1.10;;;;;;;;;;21005385;28;20048;-59
2022/06/24 16:09:30;;;;;;;4.25;2.00;;;;;;;;;;21002916;28;20122;-69
2022/06/24 16:19:31;;;;;;;3.75;1.38;;;;;;;;;;21002018;28;20060;-69
2022/06/24 16:29:33;;;;;;;3.28;1.95;;;;;;;;;;21001256;28;20546;-58
2022/06/24 16:39:35;;;;;;;4.15;1.65;;;;;;;;;;21001063;28;20121;-59
2022/06/24 16:49:37;;;;;;;3.88;1.25;;;;;;;;;;21000167;28;20049;-64
2022/06/24 16:59:38;;;;;;;7.03;1.42;;;;;;;;;;20999472;28;20193;-68
2022/06/24 17:09:40;;;;;;;3.10;1.55;;;;;;;;;;20997041;28;20098;-60
2022/06/24 17:19:42;;;;;;;2.90;1.98;;;;;;;;;;20996698;28;20382;-60
2022/06/24 17:29:43;;;;;;;6.00;1.17;;;;;;;;;;20996225;28;20055;-64
2022/06/24 17:39:45;;;;;;;4.03;1.55;;;;;;;;;;20995420;28;20059;-58
2022/06/24 17:49:47;;;;;;;2.55;1.40;;;;;;;;;;20995803;28;20515;-70
2022/06/24 17:59:48;;;;;;;3.05;1.02;;;;;;;;;;20996264;28;20095;-55
2022/06/24 18:09:50;;;;;;;1.83;1.33;;;;;;;;;;20995322;28;20507;-54
2022/06/24 18:19:52;;;;;;;4.00;1.40;;;;;;;;;;20994716;28;20045;-60
2022/06/24 18:29:54;;;;;;;2.13;1.30;;;;;;;;;;20999474;28;20393;-62
2022/06/24 18:39:56;;;;;;;4.25;1.27;;;;;;;;;;21009387;28;20049;-64
2022/06/24 18:49:57;;;;;;;4.10;1.83;;;;;;;;;;21008128;28;20052;-64
2022/06/24 18:59:59;;;;;;;4.72;1.98;;;;;;;;;;21008089;28;20500;-65
2022/06/24 19:10:01;;;;;;;3.33;2.10;;;;;;;;;;21007880;28;20114;-63
2022/06/24 19:20:04;;;;;;;3.15;1.77;;;;;;;;;;21007250;28;20076;-65
2022/06/24 19:30:06;;;;;;;2.75;1.55;;;;;;;;;;21006506;28;20142;-64
2022/06/24 19:40:08;;;;;;;4.88;2.35;;;;;;;;;;21003324;28;20048;-63
2022/06/24 19:50:10;;;;;;;2.55;1.25;;;;;;;;;;21004916;28;20484;-65
2022/06/24 20:00:12;;;;;;;;;;;;;;;;;;21003703;28;20056;-64
2022/06/24 20:10:13;;;;;;;2.40;1.60;;;;;;;;;;21002562;28;19969;-65
2022/06/24 20:20:16;;;;;;;3.70;2.20;;;;;;;;;;21001717;28;20512;-65
2022/06/24 20:30:18;;;;;;;5.10;1.77;;;;;;;;;;20999573;28;20048;-64
2022/06/24 20:40:21;;;;;;;3.13;1.70;;;;;;;;;;21000640;28;20068;-63
2022/06/24 20:50:22;;;;;;;2.90;1.80;;;;;;;;;;20998765;28;20052;-62
2022/06/24 21:00:24;;;;;;;8.13;5.28;;;;;;;;;;20999211;28;20121;-61
2022/06/24 21:10:26;;;;;;;5.47;3.60;;;;;;;;;;20999002;28;20083;-64
2022/06/24 21:20:28;;;;;;;3.17;1.83;;;;;;;;;;20997922;28;20060;-62
2022/06/24 21:30:30;;;;;;;3.85;1.38;;;;;;;;;;20996244;28;20056;-62
2022/06/24 21:40:32;;;;;;;4.77;3.00;;;;;;;;;;20996602;28;20049;-60
2022/06/24 21:50:35;;;;;;;4.63;1.90;;;;;;;;;;20995654;28;20312;-60
2022/06/24 22:00:36;;;;;;;6.33;2.30;;;;;;;;;;20994950;28;20400;-61
2022/06/24 22:10:54;;;;;;;5.37;2.23;;;;;;;;;;20993707;28;20139;-61
2022/06/24 22:20:56;;;;;;;3.25;1.83;;;;;;;;;;20994933;28;20056;-62
2022/06/24 22:30:58;;;;;;;3.67;2.90;;;;;;;;;;20993873;28;20056;-61
2022/06/24 22:40:59;;;;;;;3.53;2.07;;;;;;;;;;20994125;28;20052;-61
2022/06/24 22:51:01;;;;;;;4.43;2.43;;;;;;;;;;20990991;28;20433;-62
2022/06/24 23:01:03;;;;;;;3.27;1.90;;;;;;;;;;20992340;28;20045;-60
2022/06/24 23:11:05;;;;;;;2.53;2.20;;;;;;;;;;20992406;28;20052;-62
2022/06/24 23:21:07;;;;;;;3.97;2.00;;;;;;;;;;21005162;28;20067;-63
2022/06/24 23:31:08;;;;;;;4.07;2.13;;;;;;;;;;21005376;28;20068;-60
2022/06/24 23:41:10;;;;;;;3.80;2.03;;;;;;;;;;21004558;28;20098;-60
2022/06/24 23:51:30;;;;;;;3.43;2.03;;;;;;;;;;21005544;28;20105;-60
